Time;durP1;ratioP1;P1;durP2;ratioP2;P2;SDS_P1;SDS_P2;PMS_P1;PMS_P2;Temp;Humidity;BMP_temperature;BMP_pressure;BME280_temperature;BME280_humidity;BME280_pressure;Samples;Min_cycle;Max_cycle;Signal;HPM_P1;HPM_P2
2023/02/17 00:01:00;;;;;;;23.30;6.18;;;;;;;;;;5071408;28;20040;-59
2023/02/17 00:03:27;;;;;;;18.20;5.72;;;;;;;;;;5070449;28;20039;-60
2023/02/17 00:05:52;;;;;;;20.27;6.75;;;;;;;;;;5069857;28;20057;-59
2023/02/17 00:08:18;;;;;;;14.70;5.50;;;;;;;;;;5068051;28;20055;-60
2023/02/17 00:10:43;;;;;;;14.63;5.80;;;;;;;;;;5070281;28;20036;-59
2023/02/17 00:13:08;;;;;;;18.45;5.90;;;;;;;;;;5071282;28;20016;-60
2023/02/17 00:15:36;;;;;;;18.33;5.80;;;;;;;;;;5069655;28;20032;-60
2023/02/17 00:18:01;;;;;;;12.73;5.38;;;;;;;;;;5068180;28;20044;-59
2023/02/17 00:20:27;;;;;;;15.63;6.10;;;;;;;;;;5071683;28;20401;-59
2023/02/17 00:22:53;;;;;;;20.50;5.88;;;;;;;;;;5070197;28;20032;-59
2023/02/17 00:25:18;;;;;;;15.73;5.25;;;;;;;;;;5069708;28;20032;-60
2023/02/17 00:27:43;;;;;;;13.73;5.00;;;;;;;;;;5067530;28;20047;-60
2023/02/17 00:30:09;;;;;;;15.43;5.22;;;;;;;;;;5069387;28;20052;-59
2023/02/17 00:32:35;;;;;;;11.13;4.70;;;;;;;;;;5068807;28;20035;-59
2023/02/17 00:35:00;;;;;;;10.98;4.85;;;;;;;;;;5070352;28;20103;-59
2023/02/17 00:37:26;;;;;;;20.00;5.60;;;;;;;;;;5068404;28;20039;-60
2023/02/17 00:39:51;;;;;;;11.85;5.07;;;;;;;;;;5067952;28;20052;-59
2023/02/17 00:42:16;;;;;;;17.73;5.55;;;;;;;;;;5069732;28;20754;-59
2023/02/17 00:44:42;;;;;;;16.77;5.05;;;;;;;;;;5069929;28;20020;-60
2023/02/17 00:47:07;;;;;;;15.40;5.55;;;;;;;;;;5064560;28;20032;-59
2023/02/17 00:49:32;;;;;;;18.83;5.43;;;;;;;;;;5068967;28;20111;-59
2023/02/17 00:52:00;;;;;;;11.50;4.60;;;;;;;;;;5070399;28;20020;-59
2023/02/17 00:54:26;;;;;;;13.35;5.60;;;;;;;;;;5069472;28;20497;-59
2023/02/17 00:56:52;;;;;;;13.45;5.38;;;;;;;;;;5068554;28;20126;-59
2023/02/17 00:59:17;;;;;;;16.15;5.47;;;;;;;;;;5063467;28;20060;-60
2023/02/17 01:01:42;;;;;;;19.98;5.32;;;;;;;;;;5070947;28;20037;-60
2023/02/17 01:04:08;;;;;;;14.82;5.45;;;;;;;;;;5069206;28;20037;-59
2023/02/17 01:06:36;;;;;;;15.07;5.38;;;;;;;;;;5067168;28;20031;-58
2023/02/17 01:09:05;;;;;;;17.33;4.88;;;;;;;;;;5068915;28;20024;-59
2023/02/17 01:11:32;;;;;;;9.90;5.00;;;;;;;;;;5067276;28;20028;-58
2023/02/17 01:14:00;;;;;;;18.50;6.25;;;;;;;;;;5066239;28;20031;-59
2023/02/17 01:16:28;;;;;;;10.65;4.88;;;;;;;;;;5067641;28;20028;-59
2023/02/17 01:18:54;;;;;;;11.45;4.93;;;;;;;;;;5069487;28;20040;-59
2023/02/17 01:21:22;;;;;;;15.98;5.03;;;;;;;;;;5068386;28;20047;-59
2023/02/17 01:23:49;;;;;;;11.18;4.65;;;;;;;;;;5068523;28;20111;-59
2023/02/17 01:26:17;;;;;;;12.88;5.40;;;;;;;;;;5067676;28;20036;-59
2023/02/17 01:28:42;;;;;;;10.45;4.53;;;;;;;;;;5068261;28;20032;-59
2023/02/17 01:31:09;;;;;;;13.48;5.13;;;;;;;;;;5067614;28;20407;-59
2023/02/17 01:33:34;;;;;;;14.55;5.88;;;;;;;;;;5068369;28;20012;-59
2023/02/17 01:36:02;;;;;;;13.43;4.75;;;;;;;;;;5068485;28;20405;-59
2023/02/17 01:38:27;;;;;;;12.80;4.90;;;;;;;;;;5067680;28;20429;-59
2023/02/17 01:40:53;;;;;;;15.55;4.82;;;;;;;;;;5066583;28;20128;-58
2023/02/17 01:43:19;;;;;;;9.57;5.15;;;;;;;;;;5062647;28;20769;-58
2023/02/17 01:46:10;;;;;;;14.02;5.05;;;;;;;;;;5068520;28;20032;-59
2023/02/17 01:48:38;;;;;;;12.10;4.60;;;;;;;;;;5064366;28;20032;-59
2023/02/17 01:51:12;;;;;;;11.63;4.68;;;;;;;;;;5068336;28;20119;-59
2023/02/17 01:53:40;;;;;;;11.90;4.28;;;;;;;;;;5067932;28;20509;-59
2023/02/17 01:56:07;;;;;;;10.45;4.85;;;;;;;;;;5067464;28;20111;-59
2023/02/17 01:58:32;;;;;;;14.23;4.43;;;;;;;;;;5067629;28;20119;-59
2023/02/17 02:01:02;;;;;;;16.40;5.13;;;;;;;;;;5068720;28;20123;-59
2023/02/17 02:03:30;;;;;;;11.93;4.22;;;;;;;;;;5067376;28;20032;-58
2023/02/17 02:05:58;;;;;;;16.95;4.60;;;;;;;;;;5067416;28;20131;-58
2023/02/17 02:08:26;;;;;;;13.07;4.78;;;;;;;;;;5067345;28;21265;-59
2023/02/17 02:10:52;;;;;;;15.77;5.05;;;;;;;;;;5067528;28;20024;-58
2023/02/17 02:13:17;;;;;;;10.65;4.63;;;;;;;;;;5066878;28;20034;-59
2023/02/17 02:15:52;;;;;;;13.48;6.50;;;;;;;;;;5066836;28;20021;-59
2023/02/17 02:18:36;;;;;;;11.73;5.15;;;;;;;;;;5067315;28;20120;-59
2023/02/17 02:21:46;;;;;;;11.73;4.95;;;;;;;;;;5061429;28;20060;-59
2023/02/17 02:24:46;;;;;;;10.75;4.80;;;;;;;;;;5043016;28;20097;-59
2023/02/17 02:27:50;;;;;;;16.70;5.50;;;;;;;;;;5061708;28;20375;-59
2023/02/17 02:30:40;;;;;;;13.25;4.97;;;;;;;;;;4987305;28;20041;-59
2023/02/17 02:33:11;;;;;;;14.18;4.40;;;;;;;;;;4984461;28;20096;-59
2023/02/17 02:35:56;;;;;;;15.25;4.70;;;;;;;;;;5038460;28;20037;-60
2023/02/17 02:38:36;;;;;;;14.63;4.70;;;;;;;;;;5066320;28;20371;-60
2023/02/17 02:41:17;;;;;;;10.18;4.18;;;;;;;;;;5067646;28;20044;-59
2023/02/17 02:43:43;;;;;;;16.75;5.38;;;;;;;;;;5063457;28;20058;-60
2023/02/17 02:46:09;;;;;;;14.15;5.20;;;;;;;;;;5065389;28;20722;-60
2023/02/17 02:48:34;;;;;;;12.82;4.75;;;;;;;;;;5061591;28;20024;-59
2023/02/17 02:51:12;;;;;;;11.60;4.50;;;;;;;;;;5065854;28;20046;-59
2023/02/17 02:53:52;;;;;;;11.73;4.57;;;;;;;;;;5060431;28;20043;-59
2023/02/17 02:56:54;;;;;;;7.82;4.63;;;;;;;;;;5067745;28;20719;-59
2023/02/17 02:59:37;;;;;;;15.98;4.30;;;;;;;;;;5053821;28;20040;-58
2023/02/17 03:02:27;;;;;;;16.98;4.88;;;;;;;;;;5067460;28;20031;-59
2023/02/17 03:05:12;;;;;;;15.30;4.25;;;;;;;;;;5066508;28;20118;-59
2023/02/17 03:07:43;;;;;;;10.60;4.25;;;;;;;;;;5066558;28;20040;-59
2023/02/17 03:10:09;;;;;;;14.13;4.97;;;;;;;;;;5067473;28;20031;-59
2023/02/17 03:12:38;;;;;;;9.95;4.80;;;;;;;;;;5063539;28;20028;-59
2023/02/17 03:15:23;;;;;;;15.40;4.88;;;;;;;;;;5066110;28;20687;-59
2023/02/17 03:17:48;;;;;;;10.98;4.50;;;;;;;;;;5064431;28;20531;-59
2023/02/17 03:20:14;;;;;;;13.95;4.78;;;;;;;;;;5067281;28;20027;-59
2023/02/17 03:22:43;;;;;;;12.90;4.70;;;;;;;;;;5066322;28;20504;-59
2023/02/17 03:25:09;;;;;;;11.77;5.25;;;;;;;;;;5070543;28;20029;-59
2023/02/17 03:27:34;;;;;;;13.98;5.00;;;;;;;;;;5070657;28;20033;-59
2023/02/17 03:30:00;;;;;;;15.18;5.07;;;;;;;;;;5070733;28;20021;-59
2023/02/17 03:32:25;;;;;;;14.85;4.72;;;;;;;;;;5072451;28;20025;-59
2023/02/17 03:34:50;;;;;;;11.45;5.00;;;;;;;;;;5066532;28;20108;-60
2023/02/17 03:37:16;;;;;;;12.38;4.90;;;;;;;;;;5070740;28;20425;-61
2023/02/17 03:39:41;;;;;;;10.95;5.07;;;;;;;;;;5066763;28;20398;-59
2023/02/17 03:42:07;;;;;;;16.38;5.10;;;;;;;;;;5069504;28;20044;-58
2023/02/17 03:44:32;;;;;;;10.75;4.53;;;;;;;;;;5069122;28;20405;-59
2023/02/17 03:46:57;;;;;;;11.95;5.43;;;;;;;;;;5071070;28;20079;-58
2023/02/17 03:49:23;;;;;;;12.68;5.00;;;;;;;;;;5072735;28;20036;-59
2023/02/17 03:51:48;;;;;;;12.82;4.72;;;;;;;;;;5071329;28;20031;-58
2023/02/17 03:54:14;;;;;;;10.80;5.10;;;;;;;;;;5070872;28;20062;-59
2023/02/17 03:56:39;;;;;;;12.88;4.55;;;;;;;;;;5063553;28;20062;-59
2023/02/17 03:59:04;;;;;;;12.60;4.50;;;;;;;;;;5070524;28;20728;-59
2023/02/17 04:01:30;;;;;;;10.60;4.35;;;;;;;;;;5070066;28;20063;-59
2023/02/17 04:03:55;;;;;;;13.07;4.57;;;;;;;;;;5070345;28;20032;-59
2023/02/17 04:06:21;;;;;;;14.75;4.97;;;;;;;;;;5072897;28;20699;-59
2023/02/17 04:08:47;;;;;;;11.00;4.70;;;;;;;;;;5069684;28;20036;-59
2023/02/17 04:11:13;;;;;;;12.07;5.20;;;;;;;;;;5070245;28;20036;-59
2023/02/17 04:13:38;;;;;;;9.90;4.70;;;;;;;;;;5069585;28;20046;-59
2023/02/17 04:16:06;;;;;;;11.30;4.65;;;;;;;;;;5075102;28;20114;-59
2023/02/17 04:18:31;;;;;;;14.13;4.75;;;;;;;;;;5069663;28;20056;-59
2023/02/17 04:20:57;;;;;;;9.73;4.32;;;;;;;;;;5068232;28;20056;-60
2023/02/17 04:23:22;;;;;;;12.32;4.53;;;;;;;;;;5069498;28;20060;-59
2023/02/17 04:25:48;;;;;;;10.60;4.68;;;;;;;;;;5066546;28;20107;-59
2023/02/17 04:28:14;;;;;;;11.77;4.60;;;;;;;;;;5069143;28;20029;-59
2023/02/17 04:30:42;;;;;;;12.93;4.97;;;;;;;;;;5065891;28;20051;-59
2023/02/17 04:33:08;;;;;;;10.70;4.25;;;;;;;;;;5068912;28;20060;-59
2023/02/17 04:35:33;;;;;;;9.68;4.30;;;;;;;;;;5069880;28;20450;-59
2023/02/17 04:37:59;;;;;;;11.52;4.25;;;;;;;;;;5068791;28;20036;-59
2023/02/17 04:40:24;;;;;;;13.00;4.50;;;;;;;;;;5069230;28;20077;-59
2023/02/17 04:42:49;;;;;;;14.10;4.20;;;;;;;;;;5070737;28;20046;-59
2023/02/17 04:45:15;;;;;;;12.38;4.40;;;;;;;;;;5069350;28;20047;-58
2023/02/17 04:47:40;;;;;;;15.63;4.25;;;;;;;;;;5068069;28;20021;-59
2023/02/17 04:50:08;;;;;;;13.50;4.60;;;;;;;;;;5067366;28;20028;-58
2023/02/17 04:52:33;;;;;;;12.00;4.25;;;;;;;;;;5068179;28;20031;-59
2023/02/17 04:54:59;;;;;;;10.80;4.40;;;;;;;;;;5069552;28;20115;-59
2023/02/17 04:57:24;;;;;;;9.00;4.10;;;;;;;;;;5067720;28;20496;-59
2023/02/17 04:59:49;;;;;;;13.65;4.97;;;;;;;;;;5068797;28;20512;-59
2023/02/17 05:02:15;;;;;;;8.88;4.60;;;;;;;;;;5069619;28;20040;-59
2023/02/17 05:04:40;;;;;;;12.18;5.00;;;;;;;;;;5068282;28;20017;-59
2023/02/17 05:07:06;;;;;;;12.88;4.72;;;;;;;;;;5068263;28;20086;-59
2023/02/17 05:09:31;;;;;;;11.13;4.82;;;;;;;;;;5068445;28;20020;-60
2023/02/17 05:11:57;;;;;;;10.10;4.88;;;;;;;;;;5067273;28;20115;-60
2023/02/17 05:14:22;;;;;;;12.13;4.63;;;;;;;;;;5069134;28;20092;-60
2023/02/17 05:16:47;;;;;;;10.18;4.65;;;;;;;;;;5069963;28;20063;-59
2023/02/17 05:19:13;;;;;;;9.95;4.90;;;;;;;;;;5068172;28;20379;-59
2023/02/17 05:21:38;;;;;;;11.73;4.70;;;;;;;;;;5069113;28;20060;-59
2023/02/17 05:24:04;;;;;;;12.65;5.25;;;;;;;;;;5068745;28;20114;-59
2023/02/17 05:26:29;;;;;;;11.55;5.03;;;;;;;;;;5066974;28;20048;-59
2023/02/17 05:28:55;;;;;;;10.05;4.35;;;;;;;;;;5067781;28;20028;-59
2023/02/17 05:31:20;;;;;;;12.82;4.57;;;;;;;;;;5068788;28;20077;-59
2023/02/17 05:33:45;;;;;;;10.93;3.85;;;;;;;;;;5068744;28;20039;-59
2023/02/17 05:36:12;;;;;;;10.25;4.80;;;;;;;;;;5068668;28;20481;-60
2023/02/17 05:38:38;;;;;;;11.73;4.47;;;;;;;;;;5066933;28;20097;-58
2023/02/17 05:41:04;;;;;;;9.98;5.13;;;;;;;;;;5068326;28;20024;-59
2023/02/17 05:43:30;;;;;;;9.73;4.60;;;;;;;;;;5068825;28;20115;-58
2023/02/17 05:46:05;;;;;;;12.15;5.50;;;;;;;;;;5067330;28;20095;-58
2023/02/17 05:48:30;;;;;;;12.30;4.63;;;;;;;;;;5064553;28;20481;-57
2023/02/17 05:50:55;;;;;;;13.52;4.43;;;;;;;;;;5065342;28;20103;-58
2023/02/17 05:53:21;;;;;;;13.95;4.10;;;;;;;;;;5068855;28;20028;-58
2023/02/17 05:55:46;;;;;;;8.82;3.67;;;;;;;;;;5070304;28;20024;-59
2023/02/17 05:58:11;;;;;;;7.80;3.20;;;;;;;;;;5069404;28;20107;-58
2023/02/17 06:00:37;;;;;;;8.93;3.85;;;;;;;;;;5068647;28;20417;-59
2023/02/17 06:03:02;;;;;;;8.82;3.97;;;;;;;;;;5068447;28;20035;-59
2023/02/17 06:05:28;;;;;;;9.30;4.13;;;;;;;;;;5067571;28;20032;-59
2023/02/17 06:07:53;;;;;;;9.85;3.78;;;;;;;;;;5067058;28;20039;-58
2023/02/17 06:10:19;;;;;;;8.63;3.58;;;;;;;;;;5067400;28;20413;-58
2023/02/17 06:12:44;;;;;;;10.75;4.22;;;;;;;;;;5067995;28;20125;-58
2023/02/17 06:15:09;;;;;;;10.10;3.60;;;;;;;;;;5056146;28;20710;-58
2023/02/17 06:17:36;;;;;;;12.77;3.55;;;;;;;;;;5063174;28;20025;-57
2023/02/17 06:20:01;;;;;;;16.23;4.85;;;;;;;;;;5066363;28;20020;-59
2023/02/17 06:22:26;;;;;;;9.23;3.13;;;;;;;;;;5066827;28;20108;-59
2023/02/17 06:24:52;;;;;;;8.95;2.97;;;;;;;;;;5066510;28;20031;-58
2023/02/17 06:27:17;;;;;;;8.70;3.60;;;;;;;;;;5065520;28;20107;-58
2023/02/17 06:29:43;;;;;;;9.02;3.72;;;;;;;;;;5067406;28;20067;-58
2023/02/17 06:32:08;;;;;;;22.88;6.47;;;;;;;;;;5067290;28;20032;-58
2023/02/17 06:34:34;;;;;;;9.48;4.10;;;;;;;;;;5062949;28;20070;-58
2023/02/17 06:36:59;;;;;;;12.55;4.20;;;;;;;;;;5064408;28;20032;-58
2023/02/17 06:39:25;;;;;;;5.15;3.17;;;;;;;;;;5070009;28;20023;-59
2023/02/17 06:41:50;;;;;;;7.95;3.60;;;;;;;;;;5065530;28;20065;-58
2023/02/17 06:44:15;;;;;;;11.10;4.43;;;;;;;;;;5067366;28;20502;-58
2023/02/17 06:46:41;;;;;;;11.48;4.50;;;;;;;;;;5063926;28;20064;-58
2023/02/17 06:49:07;;;;;;;7.63;3.80;;;;;;;;;;5064409;28;20055;-58
2023/02/17 06:51:32;;;;;;;11.80;4.72;;;;;;;;;;5066393;28;20024;-57
2023/02/17 06:53:57;;;;;;;10.73;3.72;;;;;;;;;;5067654;28;20450;-57
2023/02/17 06:56:23;;;;;;;8.55;3.92;;;;;;;;;;5065768;28;20426;-58
2023/02/17 06:58:48;;;;;;;7.78;3.78;;;;;;;;;;5065973;28;20078;-60
2023/02/17 07:01:22;;;;;;;9.50;3.75;;;;;;;;;;5065186;28;20040;-59
2023/02/17 07:03:48;;;;;;;8.05;3.53;;;;;;;;;;5059374;28;20036;-58
2023/02/17 07:06:13;;;;;;;7.05;3.75;;;;;;;;;;5062397;28;20409;-58
2023/02/17 07:08:39;;;;;;;8.18;3.78;;;;;;;;;;5062277;28;20024;-57
2023/02/17 07:11:06;;;;;;;9.70;3.83;;;;;;;;;;5066353;28;20040;-57
2023/02/17 07:13:32;;;;;;;11.77;3.80;;;;;;;;;;5063767;28;20078;-58
2023/02/17 07:15:57;;;;;;;12.27;3.47;;;;;;;;;;5066079;28;20032;-57
2023/02/17 07:18:22;;;;;;;8.57;3.42;;;;;;;;;;5064000;28;20031;-57
2023/02/17 07:20:48;;;;;;;9.10;3.90;;;;;;;;;;5066981;28;20816;-57
2023/02/17 07:23:13;;;;;;;9.50;3.78;;;;;;;;;;5064977;28;20029;-56
2023/02/17 07:25:39;;;;;;;10.35;4.10;;;;;;;;;;5062741;28;20054;-59
2023/02/17 07:28:04;;;;;;;9.50;3.65;;;;;;;;;;5061247;28;20040;-58
2023/02/17 07:30:29;;;;;;;8.73;4.00;;;;;;;;;;5062478;28;20085;-56
2023/02/17 07:32:55;;;;;;;8.45;4.45;;;;;;;;;;5061679;28;20031;-57
2023/02/17 07:35:20;;;;;;;7.80;3.67;;;;;;;;;;5060714;28;20020;-56
2023/02/17 07:37:46;;;;;;;8.48;3.50;;;;;;;;;;5058601;28;20032;-57
2023/02/17 07:40:11;;;;;;;13.38;4.25;;;;;;;;;;5062927;28;20029;-57
2023/02/17 07:42:37;;;;;;;8.57;3.92;;;;;;;;;;5068541;28;20020;-57
2023/02/17 07:45:02;;;;;;;12.25;3.88;;;;;;;;;;5067115;28;20565;-57
2023/02/17 07:47:28;;;;;;;10.65;4.15;;;;;;;;;;5064577;28;20032;-57
2023/02/17 07:49:54;;;;;;;13.60;3.92;;;;;;;;;;5059364;28;20039;-57
2023/02/17 07:52:20;;;;;;;12.70;4.47;;;;;;;;;;5067639;28;20099;-57
2023/02/17 07:54:45;;;;;;;6.97;3.85;;;;;;;;;;5067245;28;20028;-57
2023/02/17 07:57:10;;;;;;;11.68;4.10;;;;;;;;;;5066261;28;20433;-57
2023/02/17 07:59:36;;;;;;;11.77;4.13;;;;;;;;;;5065660;28;20090;-57
2023/02/17 08:02:01;;;;;;;12.38;4.00;;;;;;;;;;5067055;28;20028;-57
2023/02/17 08:04:26;;;;;;;13.00;5.00;;;;;;;;;;5065386;28;20044;-57
2023/02/17 08:06:52;;;;;;;14.35;5.57;;;;;;;;;;5064622;28;20036;-57
2023/02/17 08:14:45;;;;;;;11.70;4.18;;;;;;;;;;5063279;28;20024;-58
2023/02/17 08:17:10;;;;;;;13.48;4.45;;;;;;;;;;5068920;28;20036;-56
2023/02/17 08:19:36;;;;;;;7.60;4.03;;;;;;;;;;5066490;28;20032;-57
2023/02/17 08:22:02;;;;;;;9.85;4.25;;;;;;;;;;5068806;28;20021;-57
2023/02/17 08:24:28;;;;;;;12.07;4.22;;;;;;;;;;5070550;28;20027;-57
2023/02/17 08:26:54;;;;;;;17.80;5.30;;;;;;;;;;5069082;28;20024;-57
2023/02/17 08:29:20;;;;;;;11.63;4.45;;;;;;;;;;5064575;28;20677;-57
2023/02/17 08:31:46;;;;;;;12.55;4.75;;;;;;;;;;5069173;28;20059;-57
2023/02/17 08:34:12;;;;;;;12.68;4.80;;;;;;;;;;5070524;28;20025;-57
2023/02/17 08:36:38;;;;;;;9.68;4.22;;;;;;;;;;5068407;28;20086;-58
2023/02/17 08:39:05;;;;;;;11.07;4.88;;;;;;;;;;5068504;28;20029;-57
2023/02/17 08:41:36;;;;;;;12.82;5.80;;;;;;;;;;5067543;28;20489;-57
2023/02/17 08:44:06;;;;;;;11.13;4.57;;;;;;;;;;5068440;28;20064;-57
2023/02/17 08:46:33;;;;;;;11.02;4.68;;;;;;;;;;5066974;28;20039;-57
2023/02/17 08:48:59;;;;;;;9.35;4.57;;;;;;;;;;5067298;28;20040;-57
2023/02/17 08:51:25;;;;;;;14.98;4.97;;;;;;;;;;5067502;28;20020;-58
2023/02/17 08:53:53;;;;;;;15.18;5.32;;;;;;;;;;5069407;28;20138;-57
2023/02/17 08:56:20;;;;;;;13.18;4.35;;;;;;;;;;5067352;28;20041;-57
2023/02/17 08:58:45;;;;;;;10.90;4.40;;;;;;;;;;5067285;28;20021;-57
2023/02/17 09:01:11;;;;;;;13.60;4.57;;;;;;;;;;5067780;28;20146;-57
2023/02/17 09:03:37;;;;;;;12.60;5.40;;;;;;;;;;5067695;28;20032;-57
2023/02/17 09:06:03;;;;;;;9.35;4.38;;;;;;;;;;5067828;28;20021;-57
2023/02/17 09:08:29;;;;;;;11.02;4.80;;;;;;;;;;5066935;28;20043;-56
2023/02/17 09:10:54;;;;;;;12.45;5.63;;;;;;;;;;5069658;28;20028;-57
2023/02/17 09:13:20;;;;;;;11.38;4.53;;;;;;;;;;5067228;28;20071;-57
2023/02/17 09:15:45;;;;;;;16.17;5.05;;;;;;;;;;5065744;28;20931;-57
2023/02/17 09:18:11;;;;;;;22.50;4.75;;;;;;;;;;5066218;28;20160;-57
2023/02/17 09:20:38;;;;;;;11.77;4.53;;;;;;;;;;5068819;28;20032;-57
2023/02/17 09:23:04;;;;;;;11.55;5.03;;;;;;;;;;5068045;28;20044;-58
2023/02/17 09:25:29;;;;;;;15.05;5.13;;;;;;;;;;5065052;28;20486;-57
2023/02/17 09:27:54;;;;;;;16.80;4.75;;;;;;;;;;5070004;28;20035;-58
2023/02/17 09:30:20;;;;;;;12.77;5.07;;;;;;;;;;5065808;28;20033;-58
2023/02/17 09:32:45;;;;;;;13.20;4.68;;;;;;;;;;5066280;28;20032;-58
2023/02/17 09:35:16;;;;;;;10.63;4.53;;;;;;;;;;5068787;28;20482;-58
2023/02/17 09:37:41;;;;;;;8.25;4.40;;;;;;;;;;5066505;28;20071;-58
2023/02/17 09:40:14;;;;;;;11.85;4.47;;;;;;;;;;5066887;28;20056;-57
2023/02/17 09:42:40;;;;;;;11.73;4.28;;;;;;;;;;5067115;28;20451;-57
2023/02/17 09:45:11;;;;;;;9.48;3.78;;;;;;;;;;5068075;28;20036;-58
2023/02/17 09:47:45;;;;;;;8.02;3.42;;;;;;;;;;5065808;28;20032;-57
2023/02/17 09:50:14;;;;;;;6.63;3.70;;;;;;;;;;5066637;28;20028;-58
2023/02/17 09:52:47;;;;;;;9.27;4.38;;;;;;;;;;5067162;28;20028;-58
2023/02/17 09:55:22;;;;;;;8.55;3.75;;;;;;;;;;5067323;28;20036;-58
2023/02/17 09:57:50;;;;;;;10.05;3.72;;;;;;;;;;5067923;28;20036;-57
2023/02/17 10:00:22;;;;;;;10.38;3.72;;;;;;;;;;5069265;28;20016;-58
2023/02/17 10:03:10;;;;;;;6.20;3.35;;;;;;;;;;5062970;28;20075;-58
2023/02/17 10:05:44;;;;;;;5.95;2.80;;;;;;;;;;5068058;28;20032;-57
2023/02/17 10:08:18;;;;;;;5.57;2.85;;;;;;;;;;5066085;28;20079;-58
2023/02/17 10:10:59;;;;;;;4.55;3.03;;;;;;;;;;5067485;28;20032;-58
2023/02/17 10:13:30;;;;;;;4.15;2.65;;;;;;;;;;5065319;28;20103;-57
2023/02/17 10:16:03;;;;;;;4.65;2.55;;;;;;;;;;5066244;28;20100;-57
2023/02/17 10:18:34;;;;;;;6.40;2.63;;;;;;;;;;5062312;28;20052;-57
2023/02/17 10:20:59;;;;;;;6.40;2.80;;;;;;;;;;5067834;28;20060;-58
2023/02/17 10:23:27;;;;;;;6.22;3.00;;;;;;;;;;5065662;28;20071;-57
2023/02/17 10:26:03;;;;;;;7.90;2.90;;;;;;;;;;5062205;28;20050;-58
2023/02/17 10:28:53;;;;;;;5.97;2.70;;;;;;;;;;5061228;28;20046;-58
2023/02/17 10:31:36;;;;;;;5.95;2.70;;;;;;;;;;5065237;28;20432;-58
2023/02/17 10:34:02;;;;;;;4.75;2.38;;;;;;;;;;5066662;28;20020;-57
2023/02/17 10:36:39;;;;;;;6.18;2.70;;;;;;;;;;5065398;28;20032;-58
2023/02/17 10:39:33;;;;;;;5.80;2.47;;;;;;;;;;5066188;28;20034;-58
2023/02/17 10:42:00;;;;;;;5.28;2.83;;;;;;;;;;5061495;28;20500;-58
2023/02/17 10:44:26;;;;;;;4.13;2.92;;;;;;;;;;5070815;28;20109;-57
2023/02/17 10:46:53;;;;;;;5.60;2.90;;;;;;;;;;5063519;28;20094;-57
2023/02/17 10:49:24;;;;;;;4.25;2.35;;;;;;;;;;5068009;28;20020;-57
2023/02/17 10:51:50;;;;;;;5.22;2.47;;;;;;;;;;5065365;28;20036;-56
2023/02/17 10:54:33;;;;;;;5.22;2.30;;;;;;;;;;5064939;28;20025;-57
2023/02/17 10:57:01;;;;;;;7.65;2.63;;;;;;;;;;5061987;28;20036;-57
2023/02/17 10:59:32;;;;;;;4.68;2.40;;;;;;;;;;5063782;28;20039;-53
2023/02/17 11:02:13;;;;;;;6.13;2.20;;;;;;;;;;5065256;28;20036;-59
2023/02/17 11:04:43;;;;;;;5.72;2.40;;;;;;;;;;5064808;28;20129;-57
2023/02/17 11:07:13;;;;;;;3.63;2.15;;;;;;;;;;5063002;28;20503;-57
2023/02/17 11:09:46;;;;;;;3.50;2.10;;;;;;;;;;5063606;28;20024;-57
2023/02/17 11:12:40;;;;;;;4.90;2.20;;;;;;;;;;5062996;28;20033;-59
2023/02/17 11:15:19;;;;;;;4.38;2.22;;;;;;;;;;5057523;28;20087;-61
2023/02/17 11:17:45;;;;;;;2.88;1.73;;;;;;;;;;5058061;28;20029;-59
2023/02/17 11:20:14;;;;;;;3.42;1.85;;;;;;;;;;5060260;28;20405;-59
2023/02/17 11:22:43;;;;;;;4.25;2.03;;;;;;;;;;5061976;28;20562;-58
2023/02/17 11:25:27;;;;;;;3.45;2.15;;;;;;;;;;5062948;28;20412;-59
2023/02/17 11:27:54;;;;;;;3.95;2.17;;;;;;;;;;5060123;28;20040;-61
2023/02/17 11:30:20;;;;;;;2.95;1.98;;;;;;;;;;5058432;28;20032;-58
2023/02/17 11:32:46;;;;;;;5.00;2.20;;;;;;;;;;5062986;28;20516;-58
2023/02/17 11:35:24;;;;;;;5.18;2.13;;;;;;;;;;5065296;28;20028;-59
2023/02/17 11:37:49;;;;;;;3.38;2.20;;;;;;;;;;5060963;28;20498;-58
2023/02/17 11:40:30;;;;;;;7.35;1.90;;;;;;;;;;5063491;28;20035;-58
2023/02/17 11:42:59;;;;;;;5.40;2.15;;;;;;;;;;5065729;28;20032;-58
2023/02/17 11:45:33;;;;;;;4.95;1.45;;;;;;;;;;5066377;28;20070;-58
2023/02/17 11:48:17;;;;;;;3.70;1.35;;;;;;;;;;5068536;28;20028;-58
2023/02/17 11:50:54;;;;;;;2.17;1.35;;;;;;;;;;5069522;28;20106;-58
2023/02/17 11:53:45;;;;;;;2.88;1.50;;;;;;;;;;5069453;28;20103;-58
2023/02/17 11:56:19;;;;;;;5.05;1.48;;;;;;;;;;5048141;28;20130;-59
2023/02/17 11:59:26;;;;;;;1.67;1.20;;;;;;;;;;5062848;28;20053;-57
2023/02/17 12:02:03;;;;;;;3.45;1.25;;;;;;;;;;5039448;28;20040;-58
2023/02/17 12:04:31;;;;;;;4.88;1.40;;;;;;;;;;5068200;28;20033;-58
2023/02/17 12:07:15;;;;;;;6.07;1.30;;;;;;;;;;5069247;28;20479;-60
2023/02/17 12:10:03;;;;;;;1.98;1.38;;;;;;;;;;5070988;28;20020;-58
2023/02/17 12:12:43;;;;;;;2.83;1.40;;;;;;;;;;5067072;28;20454;-59
2023/02/17 12:15:33;;;;;;;2.53;1.45;;;;;;;;;;5068825;28;20047;-58
2023/02/17 12:18:32;;;;;;;4.10;1.60;;;;;;;;;;5066430;28;20031;-59
2023/02/17 12:21:16;;;;;;;26.65;10.00;;;;;;;;;;5069245;28;20656;-59
2023/02/17 12:23:47;;;;;;;3.55;1.40;;;;;;;;;;5067540;28;20678;-59
2023/02/17 12:26:25;;;;;;;2.17;1.48;;;;;;;;;;5066323;28;20134;-59
2023/02/17 12:29:05;;;;;;;4.43;2.35;;;;;;;;;;5067992;28;20040;-59
2023/02/17 12:32:00;;;;;;;5.10;2.17;;;;;;;;;;5067054;28;20032;-58
2023/02/17 12:34:37;;;;;;;2.10;1.40;;;;;;;;;;5069979;28;20090;-58
2023/02/17 12:37:06;;;;;;;2.60;1.50;;;;;;;;;;5064920;28;20024;-58
2023/02/17 12:39:49;;;;;;;4.07;1.65;;;;;;;;;;5066624;28;20028;-58
2023/02/17 12:42:39;;;;;;;3.45;1.73;;;;;;;;;;5066773;28;20036;-58
2023/02/17 12:45:14;;;;;;;2.22;1.65;;;;;;;;;;5066769;28;20225;-58
2023/02/17 12:47:54;;;;;;;2.42;1.70;;;;;;;;;;5067825;28;20041;-58
2023/02/17 12:50:38;;;;;;;4.00;1.70;;;;;;;;;;5069177;28;20025;-59
2023/02/17 12:53:26;;;;;;;6.70;2.00;;;;;;;;;;5063607;28;20055;-59
2023/02/17 12:55:58;;;;;;;4.47;1.90;;;;;;;;;;5065156;28;20520;-59
2023/02/17 12:58:26;;;;;;;9.05;2.00;;;;;;;;;;5066193;28;20032;-59
2023/02/17 13:01:09;;;;;;;5.07;2.13;;;;;;;;;;5066547;28;20511;-59
2023/02/17 13:03:36;;;;;;;6.50;2.08;;;;;;;;;;5067325;28;20089;-59
2023/02/17 13:06:26;;;;;;;5.20;1.92;;;;;;;;;;5068934;28;20052;-59
2023/02/17 13:09:00;;;;;;;4.10;2.40;;;;;;;;;;5065710;28;20016;-59
2023/02/17 13:11:32;;;;;;;3.63;1.77;;;;;;;;;;5065263;28;20033;-59
2023/02/17 13:14:23;;;;;;;3.28;1.80;;;;;;;;;;5065476;28;20033;-59
2023/02/17 13:16:49;;;;;;;2.05;1.60;;;;;;;;;;5065518;28;20135;-59
2023/02/17 13:19:14;;;;;;;3.50;1.92;;;;;;;;;;5067405;28;20545;-59
2023/02/17 13:21:52;;;;;;;2.25;1.70;;;;;;;;;;5066331;28;20402;-59
2023/02/17 13:24:30;;;;;;;2.25;1.60;;;;;;;;;;5066420;28;20024;-59
2023/02/17 13:26:55;;;;;;;1.95;1.52;;;;;;;;;;5065901;28;20187;-59
2023/02/17 13:29:34;;;;;;;3.60;1.40;;;;;;;;;;5067214;28;20135;-59
2023/02/17 13:32:02;;;;;;;2.92;1.70;;;;;;;;;;5066976;28;20033;-58
2023/02/17 13:34:32;;;;;;;2.00;1.60;;;;;;;;;;5063508;28;20035;-59
2023/02/17 13:37:01;;;;;;;3.40;1.80;;;;;;;;;;5064294;28;20028;-59
2023/02/17 13:39:27;;;;;;;4.35;2.20;;;;;;;;;;5068008;28;20035;-58
2023/02/17 13:41:57;;;;;;;2.05;1.55;;;;;;;;;;5065501;28;20024;-58
2023/02/17 13:44:33;;;;;;;2.05;1.80;;;;;;;;;;5066175;28;20036;-57
2023/02/17 13:47:06;;;;;;;3.55;1.85;;;;;;;;;;5066875;28;20035;-57
2023/02/17 13:49:34;;;;;;;2.15;1.77;;;;;;;;;;5063938;28;20032;-57
2023/02/17 13:52:21;;;;;;;2.60;2.10;;;;;;;;;;5066573;28;20035;-57
2023/02/17 13:54:51;;;;;;;2.97;1.90;;;;;;;;;;5065940;28;20059;-57
2023/02/17 13:57:34;;;;;;;2.45;1.40;;;;;;;;;;5065173;28;20502;-57
2023/02/17 14:00:25;;;;;;;3.42;1.77;;;;;;;;;;5063726;28;20032;-57
2023/02/17 14:02:53;;;;;;;2.60;1.85;;;;;;;;;;5067671;28;20108;-58
2023/02/17 14:05:30;;;;;;;3.95;2.13;;;;;;;;;;5071193;28;20066;-57
2023/02/17 14:08:13;;;;;;;5.18;3.78;;;;;;;;;;5066073;28;20120;-57
2023/02/17 14:10:39;;;;;;;2.95;1.80;;;;;;;;;;5063501;28;20473;-58
2023/02/17 14:13:09;;;;;;;2.47;1.60;;;;;;;;;;5068039;28;20040;-57
2023/02/17 14:15:35;;;;;;;2.28;1.55;;;;;;;;;;5062671;28;20436;-57
2023/02/17 14:18:12;;;;;;;3.22;1.60;;;;;;;;;;5065525;28;20024;-57
2023/02/17 14:20:37;;;;;;;7.85;1.88;;;;;;;;;;5064872;28;20698;-57
2023/02/17 14:23:10;;;;;;;2.67;2.00;;;;;;;;;;5065801;28;20040;-57
2023/02/17 14:25:39;;;;;;;2.92;2.20;;;;;;;;;;5064359;28;20024;-58
2023/02/17 14:28:24;;;;;;;2.67;1.63;;;;;;;;;;5059122;28;20023;-57
2023/02/17 14:30:50;;;;;;;4.57;2.00;;;;;;;;;;5064646;28;20033;-57
2023/02/17 14:33:18;;;;;;;4.90;2.65;;;;;;;;;;5066833;28;20417;-54
2023/02/17 14:36:01;;;;;;;3.25;2.00;;;;;;;;;;5064734;28;20723;-57
2023/02/17 14:38:31;;;;;;;6.65;2.20;;;;;;;;;;5064331;28;20044;-58
2023/02/17 14:40:57;;;;;;;4.05;1.95;;;;;;;;;;5063825;28;20021;-58
2023/02/17 14:43:23;;;;;;;2.70;1.80;;;;;;;;;;5065655;28;20044;-59
2023/02/17 14:45:49;;;;;;;4.60;2.08;;;;;;;;;;5065169;28;20036;-58
2023/02/17 14:48:15;;;;;;;2.33;1.40;;;;;;;;;;5066007;28;20086;-58
2023/02/17 14:50:43;;;;;;;3.00;1.65;;;;;;;;;;5065856;28;20028;-54
2023/02/17 14:53:22;;;;;;;3.47;1.30;;;;;;;;;;5066682;28;20063;-59
2023/02/17 14:55:55;;;;;;;2.22;1.73;;;;;;;;;;5065020;28;20493;-57
2023/02/17 14:58:22;;;;;;;1.75;1.50;;;;;;;;;;5064360;28;20082;-58